Time;durP1;ratioP1;P1;durP2;ratioP2;P2;SDS_P1;SDS_P2;PMS_P1;PMS_P2;Temp;Humidity;BMP_temperature;BMP_pressure;BME280_temperature;BME280_humidity;BME280_pressure;Samples;Min_cycle;Max_cycle;Signal;HPM_P1;HPM_P2
2022/01/20 00:02:19;;;;;;;7.35;4.10;;;3.90;68.00;;;2.25;72.03;96513.78;4915514;29;20134;-61
2022/01/20 00:04:48;;;;;;;5.78;3.63;;;3.90;68.10;;;2.26;71.76;96515.44;4930005;29;20036;-61
2022/01/20 00:07:31;;;;;;;7.57;4.07;;;3.90;68.10;;;2.26;71.47;96509.44;4926270;28;20080;-61
2022/01/20 00:26:06;;;;;;;6.10;4.10;;;3.80;68.50;;;2.19;71.80;96503.94;4917594;29;20122;-60
2022/01/20 00:28:44;;;;;;;7.65;4.50;;;3.70;68.60;;;2.17;72.24;96495.47;4906199;29;20042;-60
2022/01/20 00:31:35;;;;;;;6.00;3.83;;;3.80;68.80;;;2.16;72.13;96509.38;4925902;29;20040;-60
2022/01/20 00:34:20;;;;;;;5.18;3.40;;;3.80;68.80;;;2.14;72.30;96501.72;4951534;28;20046;-60
2022/01/20 00:37:31;;;;;;;6.93;3.75;;;3.80;68.60;;;2.13;72.30;96507.88;4910154;29;20433;-60
2022/01/20 00:39:32;;;;;;;5.72;3.78;;;3.80;68.90;;;2.12;72.32;96518.38;4931293;29;20082;-61
2022/01/20 00:41:57;;;;;;;6.63;3.53;;;3.70;68.80;;;2.12;71.58;96518.38;4946305;29;20373;-60
2022/01/20 00:44:24;;;;;;;7.05;3.90;;;3.70;68.90;;;2.11;72.53;96509.78;4932281;29;20197;-60
2022/01/20 00:46:49;;;;;;;5.32;3.15;;;3.80;68.80;;;2.12;72.21;96523.56;4933144;29;20091;-60
2022/01/20 00:49:15;;;;;;;6.80;4.00;;;3.80;68.90;;;2.10;72.46;96515.09;4933392;29;20451;-60
2022/01/20 00:51:42;;;;;;;7.05;4.28;;;3.70;69.00;;;2.08;72.38;96509.19;4932479;29;20396;-60
2022/01/20 00:54:07;;;;;;;5.70;3.30;;;3.60;69.00;;;2.07;72.93;96516.16;4934071;28;20538;-60
2022/01/20 00:56:33;;;;;;;6.78;3.70;;;3.60;69.10;;;2.08;72.32;96517.81;4909348;29;20063;-59
2022/01/20 00:58:59;;;;;;;5.90;4.10;;;3.70;69.20;;;2.08;72.22;96517.81;4920929;29;20038;-60
2022/01/20 01:01:25;;;;;;;6.43;3.60;;;3.70;69.20;;;2.08;72.48;96517.81;4936383;29;20059;-60
2022/01/20 01:03:50;;;;;;;6.70;3.90;;;3.80;69.10;;;2.08;72.38;96511.81;4947449;29;20043;-61
2022/01/20 01:07:12;;;;;;;8.85;4.82;;;3.70;69.10;;;2.09;72.47;96508.25;4917717;28;20071;-61
2022/01/20 01:09:06;;;;;;;5.68;4.15;;;3.80;68.90;;;2.11;72.45;96511.53;4939018;29;20527;-65
2022/01/20 01:11:33;;;;;;;6.50;3.58;;;3.80;69.00;;;2.09;72.22;96503.06;4943136;29;20035;-65
2022/01/20 01:14:00;;;;;;;6.57;4.30;;;3.70;69.10;;;2.08;72.73;96502.25;4915979;29;20094;-65
2022/01/20 01:16:38;;;;;;;7.18;4.03;;;3.70;69.10;;;2.08;72.70;96512.63;4940969;28;20051;-64
2022/01/20 01:22:03;;;;;;;8.35;4.07;;;3.70;68.90;;;2.08;72.65;96519.59;4937345;29;20122;-64
2022/01/20 01:24:28;;;;;;;6.32;3.70;;;3.70;69.00;;;2.10;72.29;96509.91;4921785;28;20031;-64
2022/01/20 01:26:54;;;;;;;5.68;3.65;;;3.80;68.60;;;2.12;72.45;96513.19;4913775;29;20518;-65
2022/01/20 01:29:40;;;;;;;5.95;3.72;;;3.80;68.60;;;2.11;72.72;96507.16;4923215;29;20075;-65
2022/01/20 01:32:08;;;;;;;6.90;4.05;;;3.70;68.70;;;2.11;72.79;96511.53;4948775;28;20066;-65
2022/01/20 01:34:36;;;;;;;6.53;4.13;;;3.70;68.80;;;2.11;72.63;96511.53;4950578;28;20535;-66
2022/01/20 01:37:06;;;;;;;7.07;4.13;;;3.70;68.90;;;2.12;72.24;96515.78;4929572;29;20072;-65
2022/01/20 01:39:32;;;;;;;5.85;3.90;;;3.80;68.90;;;2.13;72.41;96509.63;4928573;28;20035;-65
2022/01/20 01:41:59;;;;;;;7.65;4.35;;;3.80;68.40;;;2.11;72.70;96503.75;4909189;29;20062;-65
2022/01/20 01:44:28;;;;;;;5.10;3.50;;;3.60;68.90;;;2.09;72.72;96511.66;4931393;29;20043;-65
2022/01/20 01:46:55;;;;;;;5.93;3.55;;;3.60;69.20;;;2.09;72.62;96510.84;4931873;29;20166;-65
2022/01/20 01:49:21;;;;;;;6.38;3.75;;;3.70;68.80;;;2.10;72.32;96512.50;4943930;29;20046;-65
2022/01/20 01:51:47;;;;;;;4.93;3.05;;;3.70;69.00;;;2.10;72.37;96500.34;4918302;29;20098;-65
2022/01/20 01:54:14;;;;;;;7.40;3.83;;;3.70;68.70;;;2.09;72.77;96500.47;4918602;29;20122;-65
2022/01/20 01:56:41;;;;;;;4.63;3.35;;;3.70;68.90;;;2.11;72.88;96512.38;4921336;29;20034;-65
2022/01/20 01:59:07;;;;;;;5.93;3.55;;;3.70;69.00;;;2.12;73.00;96506.22;4930654;29;20118;-65
2022/01/20 02:01:36;;;;;;;5.57;3.53;;;3.80;68.80;;;2.13;72.54;96505.28;4931321;29;20040;-65
2022/01/20 02:04:13;;;;;;;4.82;3.78;;;3.80;68.70;;;2.14;73.15;96498.31;4930601;29;20046;-65
2022/01/20 02:09:29;;;;;;;4.90;3.30;;;3.80;69.00;;;2.13;72.83;96501.84;4947571;29;20075;-64
2022/01/20 02:19:57;;;;;;;5.30;3.45;;;3.80;69.30;;;2.13;72.98;96501.84;4948384;29;20038;-64
2022/01/20 02:22:23;;;;;;;6.72;3.35;;;3.70;69.70;;;2.11;73.37;96495.97;4946781;28;20053;-64
2022/01/20 02:24:49;;;;;;;5.80;3.17;;;3.70;69.80;;;2.09;73.46;96492.69;4931050;29;20091;-63
2022/01/20 02:27:15;;;;;;;6.18;3.40;;;3.70;69.80;;;2.08;72.77;96499.66;4914810;29;20113;-65
2022/01/20 02:29:41;;;;;;;5.45;3.70;;;3.70;69.90;;;2.06;72.96;96492.94;4946934;29;20039;-65
2022/01/20 02:32:08;;;;;;;6.20;3.28;;;3.60;70.10;;;2.07;73.51;96494.59;4927754;29;20126;-66
2022/01/20 02:34:33;;;;;;;4.60;3.20;;;3.70;70.00;;;2.06;73.17;96490.34;4916206;29;20066;-65
2022/01/20 02:37:02;;;;;;;4.28;2.92;;;3.70;70.00;;;2.07;73.42;96484.22;4898912;29;20051;-65
2022/01/20 02:44:54;;;;;;;7.13;3.50;;;3.70;70.20;;;2.07;73.45;96484.22;4920774;28;20098;-65
2022/01/20 02:47:27;;;;;;;5.13;3.20;;;3.80;70.20;;;2.06;74.34;96485.97;4948360;29;20047;-65
2022/01/20 02:49:53;;;;;;;5.18;3.15;;;3.70;70.10;;;2.05;73.89;96481.75;4922227;29;20041;-65
2022/01/20 02:52:19;;;;;;;6.18;2.97;;;3.70;70.50;;;2.04;73.96;96480.09;4936847;28;20031;-65
2022/01/20 02:54:45;;;;;;;5.65;3.45;;;3.70;70.60;;;2.04;74.78;96489.66;4947990;28;20380;-65
2022/01/20 02:57:11;;;;;;;5.40;3.58;;;3.60;71.10;;;2.01;74.67;96482.91;4925547;29;20049;-65
2022/01/20 02:59:38;;;;;;;4.18;2.78;;;3.60;71.60;;;1.99;74.72;96471.84;4914301;29;20039;-65
2022/01/20 03:02:05;;;;;;;5.40;3.78;;;3.50;72.30;;;1.95;74.90;96462.69;4943105;28;20519;-66
2022/01/20 03:04:31;;;;;;;5.63;3.25;;;3.60;72.70;;;1.93;75.37;96456.78;4915528;29;20044;-65
2022/01/20 03:06:57;;;;;;;5.97;3.20;;;3.60;72.90;;;1.94;76.08;96458.44;4918115;29;20090;-65
2022/01/20 03:09:23;;;;;;;4.80;3.13;;;3.60;72.70;;;1.92;75.66;96470.72;4922436;29;20135;-65
2022/01/20 03:11:49;;;;;;;5.28;3.60;;;3.60;73.10;;;1.87;75.74;96474.66;4943777;29;20062;-65
2022/01/20 03:14:17;;;;;;;5.70;3.10;;;3.40;73.60;;;1.85;76.59;96464.41;4913704;28;20124;-65
2022/01/20 03:16:45;;;;;;;8.63;3.88;;;3.40;74.10;;;1.84;77.00;96465.34;4926330;29;20500;-65
2022/01/20 03:19:14;;;;;;;5.28;3.72;;;3.40;75.00;;;1.78;77.88;96460.66;4929948;29;20043;-65
2022/01/20 03:21:40;;;;;;;7.88;4.93;;;3.30;76.00;;;1.75;77.82;96464.31;4944331;29;20097;-65
2022/01/20 03:24:07;;;;;;;10.50;6.40;;;3.30;76.80;;;1.73;78.04;96458.44;4900010;28;20059;-65
2022/01/20 03:26:32;;;;;;;6.43;4.57;;;3.40;76.90;;;1.69;79.16;96467.41;4903098;29;20508;-64
2022/01/20 03:28:58;;;;;;;7.82;3.78;;;3.30;77.40;;;1.66;79.15;96464.25;4930440;29;20050;-64
2022/01/20 03:31:25;;;;;;;5.93;4.07;;;3.20;78.00;;;1.58;79.70;96475.22;4930810;29;20044;-64
2022/01/20 03:33:51;;;;;;;6.40;4.00;;;3.10;78.80;;;1.55;80.48;96472.88;4946442;29;20474;-65
2022/01/20 03:36:16;;;;;;;5.85;4.22;;;3.10;78.90;;;1.47;81.21;96472.69;4920361;29;20050;-65
2022/01/20 03:38:42;;;;;;;6.43;4.30;;;3.10;79.30;;;1.43;80.93;96471.31;4929807;29;20454;-64
2022/01/20 03:41:08;;;;;;;6.03;4.13;;;3.00;79.30;;;1.39;81.21;96467.31;4924103;29;20059;-64
2022/01/20 03:43:33;;;;;;;7.85;4.20;;;2.90;79.70;;;1.38;81.56;96478.63;4951821;28;20126;-65
2022/01/20 03:46:02;;;;;;;10.48;6.95;;;3.00;79.90;;;1.38;82.29;96486.41;4964690;28;20075;-65
2022/01/20 03:48:29;;;;;;;12.30;7.07;;;3.00;79.80;;;1.36;82.34;96486.53;4923038;29;20028;-65
2022/01/20 03:51:02;;;;;;;16.58;9.65;;;3.00;80.10;;;1.38;81.99;96486.41;4941801;29;20032;-65
2022/01/20 03:53:30;;;;;;;7.57;5.00;;;3.10;80.50;;;1.35;82.82;96491.81;4966774;28;20057;-65
2022/01/20 03:55:56;;;;;;;7.72;5.50;;;2.90;80.40;;;1.33;83.22;96483.34;4908830;29;20062;-65
2022/01/20 03:58:22;;;;;;;7.05;5.05;;;2.90;80.50;;;1.31;83.26;96495.59;4935140;28;20074;-65
2022/01/20 04:00:48;;;;;;;7.75;5.07;;;2.90;80.70;;;1.27;83.47;96494.19;4911453;29;20039;-65
2022/01/20 04:03:14;;;;;;;9.15;5.90;;;2.90;81.20;;;1.24;84.11;96490.09;4932373;29;20040;-66
2022/01/20 04:05:50;;;;;;;8.52;5.53;;;2.80;82.10;;;1.19;84.04;96492.22;4932732;29;20388;-65
2022/01/20 04:08:16;;;;;;;8.23;5.55;;;2.70;82.20;;;1.15;84.94;96494.25;4946655;28;20102;-65
2022/01/20 04:10:42;;;;;;;8.00;5.50;;;2.70;82.90;;;1.12;85.21;96497.03;4944753;29;20550;-65
2022/01/20 04:13:09;;;;;;;7.47;5.22;;;2.70;82.70;;;1.08;85.56;96495.66;4945950;29;20039;-65
2022/01/20 04:15:38;;;;;;;7.95;5.85;;;2.70;83.20;;;1.04;86.05;96493.44;4906127;29;20043;-65
2022/01/20 04:18:08;;;;;;;9.30;6.15;;;2.70;83.60;;;1.00;86.89;96492.03;4915965;29;20101;-65
2022/01/20 04:20:34;;;;;;;7.43;5.28;;;2.60;83.80;;;0.96;86.71;96486.25;4917207;29;20031;-65
2022/01/20 04:23:00;;;;;;;8.73;5.45;;;2.60;83.50;;;0.93;86.90;96491.69;4934281;29;20107;-65
2022/01/20 04:25:26;;;;;;;8.27;5.88;;;2.60;83.90;;;0.89;87.29;96482.50;4915565;29;20057;-65
2022/01/20 04:27:51;;;;;;;7.90;5.57;;;2.40;84.60;;;0.85;87.76;96468.13;4933695;29;20213;-65
2022/01/20 04:30:17;;;;;;;7.93;5.40;;;2.40;84.50;;;0.81;87.75;96477.09;4949610;28;20407;-65
2022/01/20 04:32:43;;;;;;;8.52;5.22;;;2.40;84.30;;;0.79;87.85;96479.81;4927552;29;20032;-67
2022/01/20 04:35:09;;;;;;;7.82;5.22;;;2.40;84.50;;;0.77;88.16;96473.09;4945909;28;20044;-69
2022/01/20 04:37:35;;;;;;;8.15;5.78;;;2.40;84.70;;;0.73;88.77;96484.66;4941296;28;20035;-66
2022/01/20 04:40:02;;;;;;;6.75;4.95;;;2.30;85.10;;;0.74;88.88;96488.88;4948306;28;20395;-68
2022/01/20 04:42:30;;;;;;;9.38;5.88;;;2.40;84.80;;;0.71;88.93;96491.72;4945168;28;20491;-68
2022/01/20 04:45:01;;;;;;;9.45;5.90;;;2.30;85.10;;;0.69;89.35;96493.59;4915311;29;20352;-68
2022/01/20 04:47:36;;;;;;;8.27;5.40;;;2.40;85.00;;;0.67;89.20;96483.31;4931281;29;20519;-67
2022/01/20 04:58:16;;;;;;;9.98;6.00;;;2.10;85.60;;;0.58;89.83;96487.47;4930399;28;20403;-64
2022/01/20 05:00:41;;;;;;;8.32;5.70;;;2.20;85.70;;;0.58;89.96;96486.63;4931306;29;20032;-64
2022/01/20 05:03:07;;;;;;;8.38;5.60;;;2.20;85.60;;;0.58;89.76;96486.63;4940878;29;20066;-65
2022/01/20 05:05:33;;;;;;;7.32;5.30;;;2.20;85.80;;;0.57;91.06;96485.00;4941675;28;20043;-65
2022/01/20 05:07:59;;;;;;;7.63;5.78;;;2.20;85.60;;;0.59;91.40;96483.09;4936216;29;20061;-65
2022/01/20 05:10:27;;;;;;;8.27;5.53;;;2.20;85.60;;;0.57;90.68;96485.81;4938015;28;20046;-65
2022/01/20 05:15:20;;;;;;;7.30;5.28;;;2.40;85.50;;;0.63;90.70;96479.34;4930936;29;20099;-65
2022/01/20 05:17:45;;;;;;;11.93;8.40;;;2.30;85.50;;;0.63;90.77;96478.50;4932112;29;20103;-65
2022/01/20 05:20:11;;;;;;;9.30;6.50;;;2.40;86.10;;;0.63;91.42;96481.09;4936743;28;20311;-65
2022/01/20 05:22:37;;;;;;;7.82;5.53;;;2.30;86.10;;;0.63;92.25;96479.34;4918129;29;20459;-65
2022/01/20 05:25:03;;;;;;;8.80;5.88;;;2.30;86.00;;;0.63;91.66;96481.09;4918912;29;20150;-65
2022/01/20 05:27:29;;;;;;;9.10;6.90;;;2.20;86.40;;;0.63;91.89;96478.50;4924837;29;20040;-65
2022/01/20 05:29:55;;;;;;;8.13;5.30;;;2.30;86.10;;;0.64;92.06;96475.81;4931302;29;20079;-65
2022/01/20 05:32:22;;;;;;;6.45;4.80;;;2.30;85.90;;;0.60;91.52;96470.03;4898728;28;20106;-65
2022/01/20 05:34:48;;;;;;;7.50;5.20;;;2.30;86.10;;;0.61;91.50;96476.88;4902730;29;20032;-65
2022/01/20 05:37:14;;;;;;;9.05;6.00;;;2.20;86.10;;;0.60;91.76;96475.22;4933018;29;20031;-65
2022/01/20 05:39:40;;;;;;;8.63;6.18;;;2.20;86.20;;;0.60;92.36;96464.88;4946441;28;20411;-65
2022/01/20 05:42:06;;;;;;;7.13;5.35;;;2.20;85.90;;;0.63;92.65;96462.97;4915365;28;20360;-65
2022/01/20 05:44:32;;;;;;;7.07;5.05;;;2.40;86.70;;;0.64;92.27;96469.81;4949029;28;20098;-67
2022/01/20 05:46:58;;;;;;;8.02;5.10;;;2.30;86.00;;;0.64;92.82;96467.22;4932345;29;20039;-67
2022/01/20 05:49:23;;;;;;;7.22;5.22;;;2.20;85.90;;;0.64;92.04;96480.16;4949111;29;20035;-67
2022/01/20 05:51:55;;;;;;;6.72;5.35;;;2.30;85.90;;;0.64;92.53;96485.34;4932994;29;20036;-67
2022/01/20 05:54:21;;;;;;;8.73;5.70;;;2.30;86.10;;;0.63;92.58;96486.28;4912875;29;20044;-68
2022/01/20 05:56:47;;;;;;;7.45;5.50;;;2.40;86.00;;;0.64;92.55;96474.97;4931264;29;20134;-70
2022/01/20 05:59:13;;;;;;;8.55;6.15;;;2.30;85.90;;;0.64;92.66;96469.81;4937185;28;20050;-68
2022/01/20 06:01:39;;;;;;;9.00;5.72;;;2.40;85.70;;;0.65;92.53;96466.28;4929794;29;20503;-65
2022/01/20 06:04:09;;;;;;;8.38;5.90;;;2.30;85.50;;;0.64;92.13;96467.22;4942433;28;20108;-64
2022/01/20 06:06:36;;;;;;;7.38;5.30;;;2.30;85.50;;;0.66;93.01;96483.44;4929362;29;20054;-64
2022/01/20 06:09:04;;;;;;;6.75;5.15;;;2.30;85.40;;;0.65;92.79;96476.63;4931090;28;20081;-64
2022/01/20 06:11:30;;;;;;;7.85;5.20;;;2.30;85.50;;;0.64;92.33;96474.97;4947968;29;20051;-64
2022/01/20 06:13:57;;;;;;;9.32;6.07;;;2.30;85.60;;;0.66;92.05;96475.69;4945527;28;20043;-65
2022/01/20 06:16:22;;;;;;;10.75;6.97;;;2.30;85.90;;;0.68;92.36;96490.19;4947434;28;20074;-63
2022/01/20 06:18:48;;;;;;;9.80;6.70;;;2.40;85.90;;;0.70;92.87;96495.25;4924695;29;20028;-65
2022/01/20 06:21:14;;;;;;;9.02;6.35;;;2.50;85.60;;;0.72;92.81;96495.94;4937226;29;20129;-64
2022/01/20 06:23:40;;;;;;;7.80;5.45;;;2.50;85.50;;;0.73;93.07;96505.34;4927850;28;20484;-65
2022/01/20 06:26:06;;;;;;;9.10;6.10;;;2.50;85.50;;;0.73;92.55;96507.94;4930532;28;20063;-64
2022/01/20 06:28:33;;;;;;;7.70;5.78;;;2.40;85.40;;;0.75;92.64;96500.88;4930453;29;20074;-65
2022/01/20 06:30:59;;;;;;;9.07;5.93;;;2.50;85.40;;;0.79;92.41;96504.88;4932282;29;20023;-65
2022/01/20 06:33:24;;;;;;;7.90;5.82;;;2.60;85.10;;;0.78;93.17;96498.06;4947795;28;20105;-63
2022/01/20 06:35:51;;;;;;;8.00;5.55;;;2.50;85.10;;;0.76;92.30;96492.16;4940073;28;20044;-66
2022/01/20 06:38:17;;;;;;;8.02;5.53;;;2.40;85.10;;;0.75;92.43;96490.53;4913499;29;20055;-65
2022/01/20 06:40:43;;;;;;;8.65;5.95;;;2.40;85.30;;;0.76;91.76;96479.22;4932654;29;20038;-64
2022/01/20 06:43:09;;;;;;;8.23;5.68;;;2.50;85.20;;;0.77;92.00;96476.50;4947463;28;20419;-66
2022/01/20 06:45:35;;;;;;;8.80;6.28;;;2.50;85.10;;;0.77;92.50;96471.34;4935901;29;20171;-64
2022/01/20 06:48:00;;;;;;;10.77;6.57;;;2.50;85.10;;;0.77;92.37;96466.16;4947694;28;20114;-65
2022/01/20 06:50:26;;;;;;;9.55;6.60;;;2.40;85.40;;;0.77;92.08;96476.50;4931986;28;20035;-65
2022/01/20 06:52:53;;;;;;;8.70;6.20;;;2.40;85.20;;;0.77;92.72;96475.69;4943204;29;20066;-65
2022/01/20 06:55:18;;;;;;;9.75;6.68;;;2.40;85.30;;;0.78;92.34;96466.97;4931970;29;20114;-64
2022/01/20 06:57:44;;;;;;;8.10;5.82;;;2.50;85.40;;;0.79;92.59;96473.81;4916494;29;20039;-66
2022/01/20 07:00:15;;;;;;;8.18;5.55;;;2.50;85.10;;;0.79;93.18;96473.81;4905738;29;20478;-65
2022/01/20 07:02:41;;;;;;;;;;;2.50;85.10;;;0.80;95.25;96480.63;4940651;29;20102;-66
2022/01/20 07:05:10;;;;;;;11.07;6.40;;;2.50;85.10;;;0.78;92.48;96477.34;4937896;29;20497;-66
2022/01/20 07:07:36;;;;;;;9.57;6.30;;;2.40;85.30;;;0.78;92.17;96466.97;4919174;29;20479;-64
2022/01/20 07:10:02;;;;;;;8.82;6.30;;;2.60;85.20;;;0.79;92.59;96468.63;4912866;29;20063;-63
2022/01/20 07:12:28;;;;;;;9.23;6.85;;;2.50;84.80;;;0.81;92.38;96474.50;4905272;29;20027;-62
2022/01/20 07:14:54;;;;;;;9.68;6.63;;;2.50;84.90;;;0.81;92.19;96487.44;4945743;28;20535;-65
2022/01/20 07:17:19;;;;;;;8.20;6.03;;;2.50;84.90;;;0.82;92.72;96491.69;4931272;29;20040;-64
2022/01/20 07:19:45;;;;;;;8.95;5.95;;;2.50;84.90;;;0.81;92.27;96493.44;4931897;29;20553;-61
2022/01/20 07:22:11;;;;;;;7.85;5.63;;;2.50;85.00;;;0.83;92.36;96493.34;4931907;29;20043;-64
2022/01/20 07:24:37;;;;;;;7.88;5.97;;;2.60;84.70;;;0.84;91.80;96492.38;4939255;29;20046;-63
2022/01/20 07:27:04;;;;;;;7.97;5.68;;;2.50;84.70;;;0.84;92.97;96505.34;4950887;28;20063;-62
2022/01/20 07:29:31;;;;;;;7.97;5.85;;;2.50;84.70;;;0.84;92.65;96500.97;4934383;29;20102;-64
2022/01/20 07:31:58;;;;;;;8.05;6.00;;;2.50;84.80;;;0.86;92.45;96506.03;4920614;29;20066;-64
2022/01/20 07:34:24;;;;;;;7.47;5.60;;;2.60;84.70;;;0.86;92.08;96503.44;4910415;29;20047;-64
2022/01/20 07:36:50;;;;;;;8.48;5.75;;;2.60;84.70;;;0.89;92.59;96510.97;4932449;29;20484;-64
2022/01/20 07:39:16;;;;;;;9.10;6.05;;;2.60;84.50;;;0.89;92.22;96511.78;4969401;28;20081;-64
2022/01/20 07:41:41;;;;;;;8.10;5.57;;;2.60;84.40;;;0.91;91.93;96512.53;4930818;29;20032;-65
2022/01/20 07:44:08;;;;;;;6.05;4.80;;;2.60;84.40;;;0.93;91.89;96516.75;4933617;28;20039;-65
2022/01/20 07:46:34;;;;;;;8.40;5.55;;;2.60;84.20;;;0.96;91.95;96513.94;4924674;28;20536;-65
2022/01/20 07:48:59;;;;;;;6.90;4.93;;;2.70;84.00;;;0.98;92.38;96514.63;4920790;28;20039;-64
2022/01/20 07:51:25;;;;;;;7.25;5.07;;;2.70;84.00;;;1.00;92.24;96513.56;4951094;29;20059;-63
2022/01/20 07:53:51;;;;;;;7.53;4.80;;;2.80;84.00;;;1.02;92.56;96516.84;4934259;29;20035;-65
2022/01/20 07:56:17;;;;;;;7.82;5.10;;;2.80;83.80;;;1.04;92.29;96514.97;4932390;28;20035;-64
2022/01/20 07:58:42;;;;;;;6.25;4.57;;;2.80;83.90;;;1.06;91.36;96510.50;4932088;29;20371;-64
2022/01/20 08:01:08;;;;;;;8.80;4.70;;;2.90;83.70;;;1.09;92.18;96527.56;4946819;28;20059;-65
2022/01/20 08:03:34;;;;;;;7.40;5.07;;;2.90;83.80;;;1.10;91.93;96527.44;4919717;29;20051;-64
2022/01/20 08:06:00;;;;;;;7.80;4.60;;;2.90;83.50;;;1.11;91.69;96526.50;4928230;29;20399;-66
2022/01/20 08:08:25;;;;;;;5.97;4.60;;;2.90;83.20;;;1.11;91.43;96526.50;4930129;28;20114;-63
2022/01/20 08:10:51;;;;;;;5.65;4.28;;;2.90;83.20;;;1.13;91.45;96534.13;4942092;28;20044;-64
2022/01/20 08:13:17;;;;;;;7.85;4.60;;;2.90;83.50;;;1.14;91.38;96531.47;4916207;29;20091;-63
2022/01/20 08:15:44;;;;;;;5.70;4.00;;;2.90;83.50;;;1.16;91.78;96528.75;4922254;28;20031;-63
2022/01/20 08:18:09;;;;;;;6.10;4.50;;;2.90;83.20;;;1.15;90.90;96527.91;4950359;28;20499;-63
2022/01/20 08:20:36;;;;;;;4.82;3.88;;;2.90;83.20;;;1.16;91.49;96534.75;4951091;28;20090;-64
2022/01/20 08:23:02;;;;;;;4.97;3.75;;;2.90;83.30;;;1.19;90.91;96528.50;4954243;28;20078;-64
2022/01/20 08:25:28;;;;;;;6.68;4.45;;;2.90;83.00;;;1.18;91.30;96535.44;4946802;29;20441;-64
2022/01/20 08:27:54;;;;;;;4.68;3.83;;;2.90;83.20;;;1.20;91.48;96546.50;4915403;29;20421;-63
2022/01/20 08:30:21;;;;;;;4.95;3.75;;;3.00;83.10;;;1.22;91.11;96547.22;4915809;29;20102;-63
2022/01/20 08:32:47;;;;;;;5.30;3.85;;;2.90;83.00;;;1.24;91.18;96552.28;4922069;29;20039;-65
2022/01/20 08:35:13;;;;;;;5.50;4.28;;;3.10;83.00;;;1.26;91.17;96557.34;4902603;29;20550;-64
2022/01/20 08:37:43;;;;;;;4.97;3.65;;;3.00;83.10;;;1.26;91.29;96552.16;4918744;29;20059;-64
2022/01/20 08:40:11;;;;;;;4.72;3.67;;;3.00;83.10;;;1.25;91.34;96547.91;4900460;28;20053;-63
2022/01/20 08:42:37;;;;;;;7.80;4.05;;;2.90;83.30;;;1.25;91.02;96545.31;4914135;29;20051;-63
2022/01/20 08:45:03;;;;;;;5.97;4.32;;;2.90;83.30;;;1.23;91.04;96556.63;4930889;29;20507;-63
2022/01/20 08:47:28;;;;;;;5.97;4.18;;;2.90;83.40;;;1.25;91.62;96558.28;4933467;29;20043;-65
2022/01/20 08:49:54;;;;;;;5.70;4.30;;;3.00;83.70;;;1.25;91.01;96568.66;4950101;29;20094;-66
2022/01/20 08:52:21;;;;;;;5.40;3.97;;;2.90;83.80;;;1.23;91.49;96574.78;4948518;28;20107;-64
2022/01/20 08:54:47;;;;;;;5.75;4.22;;;2.90;84.00;;;1.20;91.52;96587.97;4915503;29;20036;-65
2022/01/20 08:57:14;;;;;;;5.57;4.10;;;2.90;84.20;;;1.22;92.11;96575.72;4939323;29;20054;-63
2022/01/20 08:59:42;;;;;;;5.43;4.43;;;3.00;83.90;;;1.22;91.74;96580.91;4900315;29;20047;-66
2022/01/20 09:02:11;;;;;;;6.30;4.32;;;2.90;83.70;;;1.20;92.76;96587.97;4912524;28;20117;-64
2022/01/20 09:04:36;;;;;;;5.38;4.05;;;2.90;84.20;;;1.20;92.18;96584.56;4931311;28;20036;-64
2022/01/20 09:07:02;;;;;;;6.18;4.40;;;2.90;84.20;;;1.20;92.44;96579.38;4898589;29;20804;-65
2022/01/20 09:09:28;;;;;;;6.32;4.25;;;2.90;84.20;;;1.17;92.24;96567.47;4948662;28;20050;-66
2022/01/20 09:12:16;;;;;;;6.50;4.40;;;2.80;84.90;;;1.15;91.80;96577.16;4951403;28;20075;-64
2022/01/20 09:17:28;;;;;;;5.35;4.25;;;2.90;84.60;;;1.18;92.64;96584.69;4937716;28;20038;-66
2022/01/20 09:19:55;;;;;;;6.65;4.82;;;2.90;84.80;;;1.20;93.00;96572.44;4949688;28;20027;-65
2022/01/20 09:22:21;;;;;;;5.25;4.25;;;3.00;84.70;;;1.25;93.14;96584.19;4929782;29;20058;-65
2022/01/20 09:24:47;;;;;;;6.43;4.70;;;3.00;84.60;;;1.26;92.47;96572.88;4933282;29;20035;-64
2022/01/20 09:27:13;;;;;;;6.35;5.00;;;2.90;84.60;;;1.27;92.82;96577.13;4949254;28;20047;-63
2022/01/20 09:29:39;;;;;;;5.03;4.07;;;3.00;84.70;;;1.31;93.09;96575.94;4933539;29;20043;-64
2022/01/20 09:32:07;;;;;;;5.75;4.30;;;3.10;84.20;;;1.35;92.91;96585.94;4928654;29;20044;-65
2022/01/20 09:34:33;;;;;;;7.28;4.30;;;3.40;83.60;;;1.49;92.49;96592.63;4944761;29;20031;-64
2022/01/20 09:36:58;;;;;;;6.25;4.63;;;4.20;81.40;;;1.66;92.63;96583.53;4931633;29;20584;-64
2022/01/20 09:39:24;;;;;;;5.72;4.45;;;4.20;80.00;;;1.77;92.31;96599.03;4919303;28;20137;-64
2022/01/20 09:41:50;;;;;;;5.47;3.60;;;4.10;80.10;;;1.86;92.20;96589.72;4961213;28;20146;-63
2022/01/20 09:44:16;;;;;;;5.45;3.83;;;4.20;80.30;;;1.95;91.58;96589.78;4931437;28;20498;-64
2022/01/20 09:46:44;;;;;;;5.43;3.70;;;4.20;79.80;;;2.08;91.74;96589.63;4931868;29;20217;-64
2022/01/20 09:49:11;;;;;;;5.15;3.75;;;4.30;79.90;;;2.20;91.36;96596.41;4917086;29;20510;-64
2022/01/20 09:51:38;;;;;;;5.97;4.03;;;4.40;79.70;;;2.28;90.96;96595.81;4949303;28;20514;-64
2022/01/20 09:54:05;;;;;;;5.38;4.00;;;4.50;79.80;;;2.37;90.70;96601.06;4914770;29;20083;-65
2022/01/20 09:56:31;;;;;;;5.10;3.45;;;4.50;79.00;;;2.42;90.52;96611.88;4910439;29;20111;-64
2022/01/20 09:58:57;;;;;;;5.45;4.30;;;4.50;79.60;;;2.46;90.16;96615.03;4919700;29;20586;-65
2022/01/20 10:01:38;;;;;;;6.72;4.15;;;4.40;79.10;;;2.52;90.14;96613.75;4933870;29;20039;-64
2022/01/20 10:04:04;;;;;;;7.45;4.78;;;4.50;79.00;;;2.61;89.65;96605.16;4933255;28;20059;-65
2022/01/20 10:06:30;;;;;;;5.53;4.20;;;4.80;78.30;;;2.73;89.90;96601.56;4898252;29;20468;-64
2022/01/20 10:09:00;;;;;;;5.40;3.55;;;5.20;77.40;;;2.82;89.55;96608.59;4944885;29;20039;-65
2022/01/20 10:11:26;;;;;;;4.28;3.20;;;5.00;77.10;;;2.83;89.04;96607.63;4914471;29;20032;-65
2022/01/20 10:13:51;;;;;;;6.13;3.92;;;4.60;77.70;;;2.80;88.67;96610.47;4919478;29;20042;-65
2022/01/20 10:16:17;;;;;;;4.90;3.70;;;4.60;78.30;;;2.78;88.09;96588.19;4913183;29;20040;-65
2022/01/20 10:19:06;;;;;;;5.75;3.90;;;4.50;78.40;;;2.78;88.09;96589.00;4923858;29;20031;-65
2022/01/20 10:21:34;;;;;;;5.15;3.60;;;4.60;78.50;;;2.73;87.95;96591.19;4919885;29;20031;-65
2022/01/20 10:24:05;;;;;;;6.53;4.20;;;4.50;78.40;;;2.69;87.61;96590.59;4929127;29;20072;-64
2022/01/20 10:26:30;;;;;;;5.72;3.78;;;4.40;78.10;;;2.68;87.52;96593.31;4945059;29;20175;-64
2022/01/20 10:29:12;;;;;;;8.93;4.00;;;4.50;78.00;;;2.72;87.32;96597.31;4932360;29;20452;-65
2022/01/20 10:31:49;;;;;;;7.75;4.22;;;4.60;77.50;;;2.72;87.39;96599.94;4915656;29;20031;-64
2022/01/20 10:34:31;;;;;;;8.13;4.78;;;4.60;77.60;;;2.74;87.14;96603.22;4920702;28;20063;-63
2022/01/20 10:37:00;;;;;;;8.20;4.30;;;4.60;77.90;;;2.75;87.33;96605.69;4946891;29;20528;-64
2022/01/20 10:39:45;;;;;;;7.25;4.35;;;4.60;78.00;;;2.75;87.02;96615.25;4933465;28;20117;-64
2022/01/20 10:42:23;;;;;;;6.45;4.60;;;4.60;77.70;;;2.75;86.79;96617.84;4930332;28;20046;-64
2022/01/20 10:44:51;;;;;;;9.50;3.65;;;4.60;78.10;;;2.79;86.95;96602.81;4913126;29;20470;-64
2022/01/20 10:47:25;;;;;;;4.32;3.08;;;4.70;77.60;;;2.85;86.59;96602.31;4930463;28;20034;-65
2022/01/20 10:49:52;;;;;;;5.88;3.50;;;4.80;76.80;;;2.90;86.93;96597.53;4932003;29;20034;-65
2022/01/20 10:52:23;;;;;;;4.72;3.13;;;5.00;76.30;;;2.98;86.54;96598.56;4947760;28;20221;-64
2022/01/20 10:54:53;;;;;;;5.85;3.50;;;5.10;75.90;;;3.05;86.50;96596.25;4931285;29;20118;-64
2022/01/20 10:57:27;;;;;;;4.37;3.40;;;5.20;75.80;;;3.13;86.04;96582.59;4932661;29;20038;-66
2022/01/20 10:59:56;;;;;;;6.40;3.65;;;5.10;76.00;;;3.12;86.20;96583.53;4926003;29;20354;-66
2022/01/20 11:02:26;;;;;;;5.13;3.25;;;5.00;76.20;;;3.18;85.37;96585.63;4961300;28;20458;-66
2022/01/20 11:04:52;;;;;;;5.82;3.05;;;5.10;75.70;;;3.16;85.46;96577.13;4935210;29;20696;-66
2022/01/20 11:07:18;;;;;;;5.45;3.35;;;4.90;76.10;;;3.15;85.00;96585.88;4921698;29;20047;-66
2022/01/20 11:09:47;;;;;;;6.53;2.72;;;5.00;76.00;;;3.22;85.63;96572.25;4942343;29;20526;-69
2022/01/20 11:12:14;;;;;;;5.13;3.33;;;5.20;75.20;;;3.31;84.98;96570.63;4932251;28;20332;-69
2022/01/20 11:14:42;;;;;;;6.05;3.72;;;5.50;74.20;;;3.43;84.68;96574.78;4902331;29;20055;-67
2022/01/20 11:17:07;;;;;;;8.30;4.97;;;5.90;72.90;;;3.49;84.60;96558.63;4912958;29;20508;-64
2022/01/20 11:19:36;;;;;;;6.78;4.03;;;5.70;72.80;;;3.56;83.95;96567.53;4941918;29;20045;-64
2022/01/20 11:22:09;;;;;;;5.63;3.35;;;5.70;73.20;;;3.63;82.96;96545.25;4931414;29;20797;-65
2022/01/20 11:24:35;;;;;;;6.80;3.35;;;6.10;70.90;;;3.88;83.91;96543.06;4932358;29;20043;-65